Time;durP1;ratioP1;P1;durP2;ratioP2;P2;SDS_P1;SDS_P2;PMS_P1;PMS_P2;Temp;Humidity;BMP_temperature;BMP_pressure;BME280_temperature;BME280_humidity;BME280_pressure;Samples;Min_cycle;Max_cycle;Signal;HPM_P1;HPM_P2
2022/12/10 00:02:32;;;;;;;114.40;54.43;;;2.00;99.90;;;;;;5056867;28;20223;-76
2022/12/10 00:05:21;;;;;;;116.50;53.97;;;2.00;99.90;;;;;;5056707;28;20231;-77
2022/12/10 00:08:11;;;;;;;114.00;57.23;;;2.10;99.90;;;;;;5039763;28;21063;-76
2022/12/10 00:10:59;;;;;;;120.37;56.43;;;2.00;99.90;;;;;;5041859;28;21012;-77
2022/12/10 00:13:50;;;;;;;119.83;55.13;;;2.10;99.90;;;;;;5041101;28;20222;-76
2022/12/10 00:16:39;;;;;;;120.60;56.73;;;2.00;99.90;;;;;;5047996;28;20229;-77
2022/12/10 00:19:28;;;;;;;119.97;57.87;;;1.90;99.90;;;;;;5046763;28;20234;-76
2022/12/10 00:22:17;;;;;;;117.57;57.07;;;1.90;99.90;;;;;;5060769;28;20226;-77
2022/12/10 00:25:08;;;;;;;120.00;59.93;;;2.00;99.90;;;;;;5041645;28;20252;-77
2022/12/10 00:27:56;;;;;;;124.57;59.10;;;2.10;99.90;;;;;;5045695;28;20228;-77
2022/12/10 00:30:45;;;;;;;119.57;59.77;;;2.00;99.90;;;;;;5046777;28;20226;-77
2022/12/10 00:33:34;;;;;;;128.27;61.03;;;2.10;99.90;;;;;;5045597;28;20721;-77
2022/12/10 00:36:25;;;;;;;129.60;60.13;;;2.10;99.90;;;;;;5045272;28;20233;-76
2022/12/10 00:39:15;;;;;;;125.07;61.77;;;2.30;99.90;;;;;;5041556;28;20232;-77
2022/12/10 00:42:06;;;;;;;129.83;61.47;;;2.20;99.90;;;;;;5045141;28;20261;-75
2022/12/10 00:44:55;;;;;;;132.03;60.10;;;2.10;99.90;;;;;;5065702;28;20321;-74
2022/12/10 00:47:44;;;;;;;136.80;62.00;;;2.00;99.90;;;;;;5036595;28;20241;-75
2022/12/10 00:50:33;;;;;;;131.30;61.33;;;2.10;99.90;;;;;;5058099;28;20345;-75
2022/12/10 00:53:21;;;;;;;125.77;61.37;;;2.20;99.90;;;;;;5038009;28;20231;-76
2022/12/10 00:56:12;;;;;;;122.27;60.13;;;2.10;99.90;;;;;;5060866;28;20245;-76
2022/12/10 00:59:03;;;;;;;122.17;58.17;;;2.10;99.90;;;;;;5037611;28;20225;-76
2022/12/10 01:01:53;;;;;;;127.80;58.33;;;2.20;99.90;;;;;;5055580;28;20719;-76
2022/12/10 01:04:41;;;;;;;122.60;59.17;;;2.00;99.90;;;;;;5042457;28;20226;-76
2022/12/10 01:07:30;;;;;;;127.40;59.37;;;1.80;99.90;;;;;;5041004;28;20227;-73
2022/12/10 01:10:19;;;;;;;115.50;57.83;;;2.00;99.90;;;;;;5039955;28;20226;-75
2022/12/10 01:13:07;;;;;;;121.27;57.93;;;1.90;99.90;;;;;;5056543;28;20349;-76
2022/12/10 01:16:00;;;;;;;114.43;55.90;;;1.90;99.90;;;;;;5037287;28;20216;-76
2022/12/10 01:18:49;;;;;;;124.47;56.20;;;2.00;99.90;;;;;;5040873;28;20839;-77
2022/12/10 01:21:38;;;;;;;125.40;58.53;;;2.00;99.90;;;;;;5041056;28;20760;-77
2022/12/10 01:24:29;;;;;;;115.77;55.03;;;2.00;99.90;;;;;;5055146;28;20239;-78
2022/12/10 01:27:17;;;;;;;118.00;56.33;;;2.10;99.90;;;;;;5042708;28;20243;-78
2022/12/10 01:30:07;;;;;;;114.60;55.63;;;2.20;99.90;;;;;;5045990;28;20599;-78
2022/12/10 01:32:58;;;;;;;111.60;55.73;;;2.30;99.90;;;;;;5042443;28;20242;-76
2022/12/10 01:35:47;;;;;;;118.53;56.00;;;2.10;99.90;;;;;;5058757;28;20219;-76
2022/12/10 01:38:36;;;;;;;117.27;53.40;;;2.10;99.90;;;;;;5055081;28;20445;-75
2022/12/10 01:41:31;;;;;;;116.33;54.37;;;2.00;99.90;;;;;;5060101;28;20226;-75
2022/12/10 01:44:58;;;;;;;107.33;52.93;;;2.20;99.90;;;;;;5043465;28;20219;-75
2022/12/10 01:47:48;;;;;;;102.60;52.50;;;2.20;99.90;;;;;;5058919;28;20276;-74
2022/12/10 01:50:38;;;;;;;111.03;53.13;;;2.40;99.90;;;;;;5040727;28;20614;-75
2022/12/10 01:53:27;;;;;;;108.23;52.60;;;2.30;99.90;;;;;;5038680;28;20231;-75
2022/12/10 01:56:20;;;;;;;102.87;50.77;;;2.20;99.90;;;;;;5040140;28;20742;-76
2022/12/10 01:59:10;;;;;;;105.37;50.37;;;2.20;99.90;;;;;;5045039;28;20219;-74
2022/12/10 02:02:06;;;;;;;105.87;49.70;;;2.10;99.90;;;;;;5046293;28;20225;-75
2022/12/10 02:05:08;;;;;;;103.13;50.33;;;2.10;99.90;;;;;;5042430;28;20281;-74
2022/12/10 02:08:07;;;;;;;101.77;48.33;;;2.20;99.90;;;;;;5040759;28;20237;-77
2022/12/10 02:11:04;;;;;;;100.97;48.27;;;2.30;99.90;;;;;;5058108;28;20708;-76
2022/12/10 02:13:59;;;;;;;106.07;48.87;;;2.30;99.90;;;;;;5040955;28;20315;-76
2022/12/10 02:16:56;;;;;;;100.07;48.20;;;2.20;99.90;;;;;;5038757;28;20235;-76
2022/12/10 02:20:07;;;;;;;93.07;45.77;;;2.00;99.90;;;;;;5042954;28;20231;-76
2022/12/10 02:23:02;;;;;;;96.20;45.17;;;2.10;99.90;;;;;;5052178;28;20260;-76
2022/12/10 02:26:01;;;;;;;103.23;45.43;;;2.00;99.90;;;;;;5043121;28;20223;-75
2022/12/10 02:28:56;;;;;;;86.07;40.47;;;2.00;99.90;;;;;;5042245;28;20772;-76
2022/12/10 02:31:51;;;;;;;85.03;43.03;;;1.80;99.90;;;;;;5039385;28;20310;-75
2022/12/10 02:34:43;;;;;;;85.10;40.67;;;1.90;99.90;;;;;;5037517;28;20230;-75
2022/12/10 02:37:37;;;;;;;86.73;42.03;;;1.90;99.90;;;;;;5046832;28;20229;-76
2022/12/10 02:40:30;;;;;;;89.70;42.93;;;1.70;99.90;;;;;;5041656;28;20246;-76
2022/12/10 02:43:21;;;;;;;91.60;41.63;;;1.90;99.90;;;;;;5054489;28;20227;-75
2022/12/10 02:46:10;;;;;;;85.60;42.10;;;1.70;99.90;;;;;;5057569;28;20710;-75
2022/12/10 02:49:02;;;;;;;88.63;43.20;;;2.00;99.90;;;;;;5043604;28;20314;-75
2022/12/10 02:51:51;;;;;;;84.50;42.90;;;2.00;99.90;;;;;;5047065;28;20241;-75
2022/12/10 02:54:43;;;;;;;87.43;42.17;;;1.90;99.90;;;;;;5034493;28;20229;-77
2022/12/10 02:57:42;;;;;;;80.57;40.27;;;2.00;99.90;;;;;;5041490;28;20222;-76
2022/12/10 03:00:35;;;;;;;80.57;39.47;;;2.00;99.90;;;;;;5040498;28;20222;-76
2022/12/10 03:03:34;;;;;;;78.00;38.80;;;2.00;99.90;;;;;;5040559;28;20222;-77
2022/12/10 03:06:33;;;;;;;68.67;35.20;;;1.90;99.90;;;;;;5032131;28;20231;-77
2022/12/10 03:09:26;;;;;;;70.60;35.77;;;1.80;99.90;;;;;;5054572;28;20402;-76
2022/12/10 03:12:19;;;;;;;73.60;35.73;;;1.70;99.90;;;;;;5051659;28;20235;-77
2022/12/10 03:15:11;;;;;;;65.47;34.43;;;1.70;99.90;;;;;;5038775;28;20230;-75
2022/12/10 03:18:01;;;;;;;72.63;36.37;;;1.70;99.90;;;;;;5058577;28;20242;-77
2022/12/10 03:20:53;;;;;;;69.83;34.50;;;1.80;99.90;;;;;;5042976;28;20237;-76
2022/12/10 03:23:46;;;;;;;77.90;36.57;;;1.80;99.90;;;;;;5043379;28;20237;-76
2022/12/10 03:26:36;;;;;;;76.53;38.00;;;1.80;99.90;;;;;;5041340;28;20223;-76
2022/12/10 03:29:30;;;;;;;77.47;38.57;;;1.70;99.90;;;;;;5039558;28;20234;-76
2022/12/10 03:32:21;;;;;;;77.23;37.33;;;1.90;99.90;;;;;;5046076;28;20238;-76
2022/12/10 03:35:10;;;;;;;84.43;38.87;;;2.00;99.90;;;;;;5054656;28;20220;-75
2022/12/10 03:37:59;;;;;;;76.47;38.53;;;1.90;99.90;;;;;;5043164;28;20218;-77
2022/12/10 03:40:50;;;;;;;76.63;38.00;;;1.80;99.90;;;;;;5050218;28;20228;-76
2022/12/10 03:43:54;;;;;;;79.40;36.80;;;1.90;99.90;;;;;;5041939;28;20773;-76
2022/12/10 03:46:43;;;;;;;74.30;37.20;;;1.80;99.90;;;;;;5056367;28;20231;-77
2022/12/10 03:49:32;;;;;;;70.60;35.07;;;1.70;99.90;;;;;;5044409;28;20377;-76
2022/12/10 03:52:20;;;;;;;69.83;34.83;;;1.90;99.90;;;;;;5040532;28;20711;-76
2022/12/10 03:55:10;;;;;;;71.13;34.00;;;2.00;99.90;;;;;;5036508;28;20225;-76
2022/12/10 03:57:59;;;;;;;66.17;33.50;;;1.80;99.90;;;;;;5044162;28;20218;-76
2022/12/10 04:00:48;;;;;;;70.10;34.63;;;1.80;99.90;;;;;;5059804;28;20223;-76
2022/12/10 04:03:37;;;;;;;76.63;35.70;;;1.80;99.90;;;;;;5065133;28;20222;-75
2022/12/10 04:06:26;;;;;;;68.30;33.83;;;1.80;99.90;;;;;;5044596;28;20278;-76
2022/12/10 04:09:16;;;;;;;73.43;35.33;;;1.70;99.90;;;;;;5038883;28;20221;-76
2022/12/10 04:12:05;;;;;;;68.43;35.13;;;1.90;99.90;;;;;;5054068;28;20730;-74
2022/12/10 04:18:01;;;;;;;66.40;33.30;;;1.70;99.90;;;;;;5043298;28;20209;-74
2022/12/10 04:27:06;;;;;;;60.07;30.77;;;1.80;99.90;;;;;;5060974;28;20592;-77
2022/12/10 04:29:58;;;;;;;64.03;31.30;;;1.90;99.90;;;;;;5050292;28;20227;-77
2022/12/10 04:32:46;;;;;;;64.13;32.23;;;1.80;99.90;;;;;;5038851;28;20235;-75
2022/12/10 04:35:35;;;;;;;63.07;30.90;;;2.00;99.90;;;;;;5043684;28;20224;-77
2022/12/10 04:38:25;;;;;;;63.20;31.97;;;1.90;99.90;;;;;;5038225;28;20904;-76
2022/12/10 04:41:15;;;;;;;57.87;29.03;;;1.80;99.90;;;;;;5040706;28;20248;-76
2022/12/10 04:44:04;;;;;;;57.17;30.10;;;1.80;99.90;;;;;;5040301;28;20222;-76
2022/12/10 04:46:54;;;;;;;58.20;29.57;;;1.80;99.90;;;;;;5056590;28;20271;-77
2022/12/10 04:49:42;;;;;;;55.33;28.43;;;1.90;99.90;;;;;;5044498;28;20233;-78
2022/12/10 04:52:31;;;;;;;55.70;29.73;;;1.80;99.90;;;;;;5045022;28;20227;-77
2022/12/10 04:55:20;;;;;;;56.60;28.30;;;1.90;99.90;;;;;;5039485;28;20230;-76
2022/12/10 04:58:08;;;;;;;59.53;29.97;;;1.90;99.90;;;;;;5057415;28;20228;-76
2022/12/10 05:01:03;;;;;;;62.00;28.33;;;1.90;99.90;;;;;;5055889;28;20219;-77
2022/12/10 05:03:53;;;;;;;61.13;31.70;;;1.90;99.90;;;;;;5056322;28;20213;-77
2022/12/10 05:06:43;;;;;;;68.03;31.17;;;1.80;99.90;;;;;;5053100;28;20237;-78
2022/12/10 05:09:31;;;;;;;67.43;31.30;;;2.00;99.90;;;;;;5055963;28;20247;-77
2022/12/10 05:12:20;;;;;;;66.27;29.80;;;1.90;99.90;;;;;;5041632;28;20633;-78
2022/12/10 05:15:09;;;;;;;64.80;30.30;;;1.90;99.90;;;;;;5036967;28;20310;-78
2022/12/10 05:17:58;;;;;;;60.23;29.87;;;1.80;99.90;;;;;;5057598;28;20580;-78
2022/12/10 05:20:48;;;;;;;64.33;29.40;;;1.90;99.90;;;;;;5041766;28;20342;-78
2022/12/10 05:23:37;;;;;;;56.97;27.80;;;1.80;99.90;;;;;;5042909;28;20234;-77
2022/12/10 05:26:26;;;;;;;57.63;27.47;;;1.80;99.90;;;;;;5041786;28;20231;-76
2022/12/10 05:29:15;;;;;;;58.27;27.57;;;2.00;99.90;;;;;;5040700;28;20230;-77
2022/12/10 05:32:04;;;;;;;56.80;27.53;;;1.90;99.90;;;;;;5058774;28;20275;-76
2022/12/10 05:34:53;;;;;;;53.93;25.87;;;1.90;99.90;;;;;;5055823;28;20213;-77
2022/12/10 05:37:43;;;;;;;54.43;25.40;;;2.00;99.90;;;;;;5055028;28;20241;-77
2022/12/10 05:40:31;;;;;;;55.33;25.57;;;2.10;99.90;;;;;;5055203;28;20221;-76
2022/12/10 05:43:20;;;;;;;51.50;26.07;;;2.10;99.90;;;;;;5046412;28;20704;-77
2022/12/10 05:46:12;;;;;;;53.87;26.60;;;2.10;99.90;;;;;;5055239;28;20218;-75
2022/12/10 05:49:01;;;;;;;55.90;26.97;;;2.10;99.90;;;;;;5039003;28;20239;-76
2022/12/10 05:51:50;;;;;;;56.23;25.57;;;2.00;99.90;;;;;;5043142;28;20219;-77
2022/12/10 05:54:40;;;;;;;58.90;27.20;;;2.00;99.90;;;;;;5051717;28;20217;-77
2022/12/10 05:57:28;;;;;;;55.40;26.63;;;1.80;99.90;;;;;;5041714;28;20576;-77
2022/12/10 06:00:17;;;;;;;54.80;26.10;;;1.80;99.90;;;;;;5036245;28;20227;-76
2022/12/10 06:03:06;;;;;;;58.40;27.43;;;1.80;99.90;;;;;;5058212;28;20238;-77
2022/12/10 06:05:55;;;;;;;52.23;26.40;;;1.90;99.90;;;;;;5059477;28;21569;-76
2022/12/10 06:08:44;;;;;;;51.97;26.17;;;2.00;99.90;;;;;;5059869;28;20229;-76
2022/12/10 06:11:34;;;;;;;46.50;22.57;;;1.90;99.90;;;;;;5051326;28;20223;-77
2022/12/10 06:14:23;;;;;;;51.50;23.83;;;1.70;99.90;;;;;;5055019;28;20229;-77
2022/12/10 06:17:11;;;;;;;44.67;22.87;;;1.80;99.90;;;;;;5054206;28;20258;-76
2022/12/10 06:20:00;;;;;;;47.50;23.17;;;1.80;99.90;;;;;;5053018;28;20238;-76
2022/12/10 06:22:48;;;;;;;44.03;21.93;;;1.90;99.90;;;;;;5044831;28;20232;-77
2022/12/10 06:25:39;;;;;;;43.67;22.40;;;1.80;99.90;;;;;;5051384;28;20246;-76
2022/12/10 06:28:29;;;;;;;47.83;22.73;;;1.90;99.90;;;;;;5038281;28;20313;-77
2022/12/10 06:31:18;;;;;;;48.43;22.80;;;1.90;99.90;;;;;;5055700;28;21258;-77
2022/12/10 06:34:07;;;;;;;51.30;24.90;;;1.90;99.90;;;;;;5057548;28;20218;-76
2022/12/10 06:36:56;;;;;;;52.43;25.03;;;1.80;99.90;;;;;;5044027;28;20223;-79
2022/12/10 06:39:45;;;;;;;53.20;24.63;;;1.80;99.90;;;;;;5060734;28;20215;-78
2022/12/10 06:42:33;;;;;;;65.43;32.73;;;1.80;99.90;;;;;;5046259;28;20239;-77
2022/12/10 06:45:24;;;;;;;57.03;26.70;;;1.80;99.90;;;;;;5039223;28;20230;-77
2022/12/10 06:48:13;;;;;;;55.43;25.83;;;2.00;99.90;;;;;;5045163;28;20226;-75
2022/12/10 06:51:02;;;;;;;57.30;26.47;;;2.20;99.90;;;;;;5046467;28;20234;-77
2022/12/10 06:53:51;;;;;;;49.20;24.83;;;2.20;99.90;;;;;;5062099;28;20700;-75
2022/12/10 06:56:39;;;;;;;56.50;26.13;;;2.10;99.90;;;;;;5056722;28;20316;-75
2022/12/10 06:59:28;;;;;;;58.97;26.70;;;2.20;99.90;;;;;;5054168;28;20229;-75
2022/12/10 07:02:18;;;;;;;62.13;28.27;;;2.10;99.90;;;;;;5055154;28;23024;-75
2022/12/10 07:05:07;;;;;;;57.23;27.07;;;2.10;99.90;;;;;;5058562;28;20223;-75
2022/12/10 07:07:56;;;;;;;60.00;27.47;;;2.00;99.90;;;;;;5057558;28;21095;-76
2022/12/10 07:10:44;;;;;;;58.27;27.37;;;2.10;99.90;;;;;;5039370;28;20316;-77
2022/12/10 07:13:33;;;;;;;64.97;27.80;;;2.20;99.90;;;;;;5040461;28;20921;-75
2022/12/10 07:16:23;;;;;;;58.53;26.30;;;2.10;99.90;;;;;;5043127;28;20222;-76
2022/12/10 07:19:14;;;;;;;63.67;26.43;;;1.90;99.90;;;;;;5055939;28;20238;-77
2022/12/10 07:22:02;;;;;;;62.80;26.77;;;1.80;99.90;;;;;;5046665;28;20234;-75
2022/12/10 07:24:51;;;;;;;64.57;26.50;;;1.80;99.90;;;;;;5051809;28;20923;-76
2022/12/10 07:27:40;;;;;;;63.90;26.03;;;1.90;99.90;;;;;;5047448;28;20219;-78
2022/12/10 07:30:29;;;;;;;69.87;27.90;;;1.90;99.90;;;;;;5055294;28;20268;-78
2022/12/10 07:33:17;;;;;;;64.40;26.43;;;2.00;99.90;;;;;;5046828;28;20227;-78
2022/12/10 07:36:10;;;;;;;62.67;26.30;;;2.20;99.90;;;;;;5057871;28;20223;-77
2022/12/10 07:38:59;;;;;;;57.03;24.07;;;2.30;99.90;;;;;;5040186;28;20234;-77
2022/12/10 07:41:49;;;;;;;61.83;26.90;;;2.50;99.90;;;;;;5059571;28;20235;-77
2022/12/10 07:44:38;;;;;;;60.47;25.63;;;2.30;99.90;;;;;;5040931;28;20749;-77
2022/12/10 07:47:30;;;;;;;55.50;25.03;;;2.30;99.90;;;;;;5061948;28;20233;-76
2022/12/10 07:50:19;;;;;;;57.27;26.10;;;2.20;99.90;;;;;;5060477;28;20231;-76
2022/12/10 07:53:09;;;;;;;62.50;26.03;;;2.30;99.90;;;;;;5046133;28;20276;-77
2022/12/10 07:55:58;;;;;;;59.17;24.53;;;2.20;99.90;;;;;;5051898;28;20226;-77
2022/12/10 07:58:46;;;;;;;57.93;24.90;;;2.00;99.90;;;;;;5044307;28;20223;-77
2022/12/10 08:01:35;;;;;;;56.27;24.83;;;2.00;99.90;;;;;;5040627;28;20231;-75
2022/12/10 08:04:24;;;;;;;63.57;25.37;;;1.90;99.90;;;;;;5053350;28;20234;-77
2022/12/10 08:07:13;;;;;;;55.30;24.37;;;2.00;99.90;;;;;;5037834;28;20219;-76
2022/12/10 08:10:04;;;;;;;59.10;24.83;;;2.10;99.90;;;;;;5054566;28;20725;-77
2022/12/10 08:12:53;;;;;;;54.93;24.23;;;2.10;99.90;;;;;;5059507;28;20227;-75
2022/12/10 08:15:41;;;;;;;60.53;24.93;;;2.10;99.90;;;;;;5046153;28;20210;-77
2022/12/10 08:18:31;;;;;;;58.43;24.83;;;2.00;99.90;;;;;;5061589;28;20736;-76
2022/12/10 08:21:22;;;;;;;58.97;25.87;;;2.10;99.90;;;;;;5038451;28;20241;-77
2022/12/10 08:24:11;;;;;;;57.03;23.73;;;2.10;99.90;;;;;;5050800;28;20249;-76
2022/12/10 08:27:01;;;;;;;55.67;24.33;;;2.10;99.90;;;;;;5039801;28;20231;-77
2022/12/10 08:29:49;;;;;;;57.27;24.77;;;2.10;99.90;;;;;;5055344;28;20308;-79
2022/12/10 08:32:38;;;;;;;52.57;24.30;;;2.20;99.90;;;;;;5039127;28;20683;-75
2022/12/10 08:35:27;;;;;;;58.27;24.37;;;2.00;99.90;;;;;;5041691;28;20509;-75
2022/12/10 08:38:15;;;;;;;60.23;25.67;;;1.90;99.90;;;;;;5054995;28;20239;-75
2022/12/10 08:41:08;;;;;;;59.40;24.97;;;2.00;99.90;;;;;;5046066;28;20227;-75
2022/12/10 08:43:58;;;;;;;59.97;24.33;;;2.10;99.90;;;;;;5054554;28;20229;-75
2022/12/10 08:46:47;;;;;;;56.60;23.77;;;2.00;99.90;;;;;;5056902;28;20773;-75
2022/12/10 08:49:36;;;;;;;58.43;24.47;;;2.00;99.90;;;;;;5056451;28;20224;-78
2022/12/10 08:52:24;;;;;;;59.57;23.97;;;2.20;99.90;;;;;;5054467;28;20230;-76
2022/12/10 08:55:13;;;;;;;54.57;21.97;;;2.10;99.90;;;;;;5052872;28;20285;-74
2022/12/10 08:58:02;;;;;;;49.27;21.90;;;2.00;99.90;;;;;;5042486;28;20565;-75
2022/12/10 09:00:52;;;;;;;53.63;23.43;;;2.10;99.90;;;;;;5042375;28;20257;-76
2022/12/10 09:03:41;;;;;;;51.10;22.77;;;2.20;99.90;;;;;;5057973;28;20221;-76
2022/12/10 09:06:30;;;;;;;57.70;23.70;;;2.40;99.90;;;;;;5038896;28;20987;-76
2022/12/10 09:09:19;;;;;;;50.60;20.60;;;2.30;99.90;;;;;;5038392;28;20722;-75
2022/12/10 09:12:07;;;;;;;51.87;23.07;;;2.10;99.90;;;;;;5037334;28;20797;-77
2022/12/10 09:14:56;;;;;;;57.00;22.33;;;2.20;99.90;;;;;;5042703;28;20235;-77
2022/12/10 09:17:46;;;;;;;55.97;23.07;;;2.30;99.90;;;;;;5051322;28;20256;-77
2022/12/10 09:20:38;;;;;;;52.37;20.50;;;2.30;99.90;;;;;;5035773;28;20215;-76
2022/12/10 09:23:26;;;;;;;54.87;22.63;;;2.20;99.90;;;;;;5052923;28;20258;-77
2022/12/10 09:26:17;;;;;;;49.10;21.67;;;2.10;99.90;;;;;;5041225;28;20225;-77
2022/12/10 09:29:05;;;;;;;51.97;22.03;;;2.20;99.90;;;;;;5039354;28;20218;-76
2022/12/10 09:31:54;;;;;;;45.20;21.43;;;2.20;99.90;;;;;;5054788;28;20222;-76
2022/12/10 09:34:45;;;;;;;53.43;22.63;;;2.20;99.90;;;;;;5040396;28;20254;-76
2022/12/10 09:37:33;;;;;;;52.83;22.67;;;2.30;99.90;;;;;;5056700;28;20224;-77
2022/12/10 09:40:30;;;;;;;51.73;20.83;;;2.30;99.90;;;;;;5042648;28;20216;-75
2022/12/10 09:43:27;;;;;;;51.07;22.20;;;2.30;99.90;;;;;;5039094;28;20231;-76
2022/12/10 09:46:24;;;;;;;49.90;21.50;;;2.20;99.90;;;;;;5039824;28;20231;-77
2022/12/10 09:49:21;;;;;;;49.47;22.20;;;2.20;99.90;;;;;;5052368;28;20271;-76
2022/12/10 09:52:15;;;;;;;52.93;22.60;;;2.20;99.90;;;;;;5053182;28;20217;-77
2022/12/10 09:55:11;;;;;;;58.13;23.63;;;2.20;99.90;;;;;;5043657;28;20222;-77
2022/12/10 09:58:02;;;;;;;53.30;22.83;;;2.20;99.90;;;;;;5058224;28;20654;-77
2022/12/10 10:00:56;;;;;;;55.40;23.67;;;2.30;99.90;;;;;;5052777;28;20218;-76
2022/12/10 10:03:45;;;;;;;52.43;22.83;;;2.40;99.90;;;;;;5045452;28;20226;-79
2022/12/10 10:06:36;;;;;;;56.33;23.50;;;2.30;99.90;;;;;;5041009;28;20316;-76
2022/12/10 10:09:27;;;;;;;57.70;23.73;;;2.20;99.90;;;;;;5040854;28;20234;-76
2022/12/10 10:12:17;;;;;;;53.70;23.40;;;2.20;99.90;;;;;;5052450;28;20240;-76
2022/12/10 10:15:13;;;;;;;53.37;23.57;;;2.40;99.90;;;;;;5034177;28;20273;-74
2022/12/10 10:18:10;;;;;;;50.13;22.50;;;2.40;99.90;;;;;;5033841;28;20712;-77
2022/12/10 10:20:59;;;;;;;54.67;23.13;;;2.40;99.90;;;;;;5054594;28;20284;-77
2022/12/10 10:23:48;;;;;;;55.07;24.10;;;2.40;99.90;;;;;;5037623;28;20220;-77
2022/12/10 10:26:39;;;;;;;58.27;24.70;;;2.40;99.90;;;;;;5045277;28;20281;-77
2022/12/10 10:29:28;;;;;;;53.07;24.60;;;2.30;99.90;;;;;;5042586;28;20249;-76
2022/12/10 10:32:20;;;;;;;52.47;24.50;;;2.50;99.90;;;;;;5058303;28;20228;-76
2022/12/10 10:35:23;;;;;;;51.23;23.37;;;2.50;99.90;;;;;;5060593;28;20223;-74
2022/12/10 10:38:20;;;;;;;51.97;23.53;;;2.50;99.90;;;;;;5053935;28;20737;-79
2022/12/10 10:41:14;;;;;;;53.50;24.53;;;2.60;99.90;;;;;;5054992;28;20752;-78
2022/12/10 10:44:04;;;;;;;52.23;24.00;;;2.50;99.90;;;;;;5064404;28;20246;-78
2022/12/10 10:46:55;;;;;;;49.20;21.83;;;2.70;99.90;;;;;;5045498;28;20266;-81
2022/12/10 10:49:46;;;;;;;46.07;22.53;;;2.80;99.90;;;;;;5036634;28;20223;-79
2022/12/10 10:52:38;;;;;;;50.07;22.20;;;2.70;99.90;;;;;;5034730;28;20242;-77
2022/12/10 10:55:35;;;;;;;50.30;23.17;;;2.60;99.90;;;;;;5034658;28;20504;-76
2022/12/10 10:58:25;;;;;;;54.00;23.97;;;2.50;99.90;;;;;;5034914;28;20219;-81
2022/12/10 11:01:15;;;;;;;52.07;23.13;;;2.60;99.90;;;;;;5046107;28;20878;-78
2022/12/10 11:04:04;;;;;;;53.27;23.67;;;2.50;99.90;;;;;;5038567;28;20264;-77
2022/12/10 11:06:56;;;;;;;50.27;22.53;;;2.60;99.90;;;;;;5040226;28;20235;-79
2022/12/10 11:09:46;;;;;;;54.17;24.77;;;2.50;99.90;;;;;;5041668;28;20357;-80
2022/12/10 11:12:38;;;;;;;49.40;23.60;;;2.50;99.90;;;;;;5036779;28;20227;-79
2022/12/10 11:15:33;;;;;;;48.13;23.33;;;2.60;99.90;;;;;;5052422;28;20230;-78
2022/12/10 11:18:32;;;;;;;52.07;23.87;;;2.70;99.90;;;;;;5038603;28;20277;-79
2022/12/10 11:21:22;;;;;;;53.10;24.17;;;2.70;99.90;;;;;;5051777;28;20254;-79
2022/12/10 11:24:13;;;;;;;55.57;24.77;;;2.80;99.90;;;;;;5040282;28;20227;-79
2022/12/10 11:27:05;;;;;;;54.23;24.97;;;2.80;99.90;;;;;;5050975;28;20726;-78
2022/12/10 11:30:00;;;;;;;52.47;24.60;;;2.80;99.90;;;;;;5033340;28;20223;-79
2022/12/10 11:33:15;;;;;;;56.43;23.60;;;2.80;99.90;;;;;;5031307;28;20255;-79
2022/12/10 11:36:18;;;;;;;51.87;23.93;;;2.70;99.90;;;;;;5060334;28;20234;-79
2022/12/10 11:39:19;;;;;;;55.83;22.90;;;2.80;99.90;;;;;;5055322;28;20216;-78
2022/12/10 11:42:18;;;;;;;54.70;23.07;;;2.70;99.90;;;;;;5064039;28;20216;-78
2022/12/10 11:45:14;;;;;;;50.67;21.53;;;2.80;99.90;;;;;;5045693;28;20231;-78
2022/12/10 11:48:15;;;;;;;54.87;22.10;;;2.60;99.90;;;;;;5058692;28;20298;-78
2022/12/10 11:51:09;;;;;;;54.53;22.93;;;2.50;99.90;;;;;;5041212;28;20768;-79
2022/12/10 11:54:10;;;;;;;61.70;24.77;;;2.50;99.90;;;;;;5046014;28;20224;-78
2022/12/10 11:57:09;;;;;;;59.90;23.13;;;2.70;99.90;;;;;;5050289;28;20220;-79
2022/12/10 12:00:04;;;;;;;56.70;22.07;;;2.70;99.90;;;;;;5042948;28;20226;-79
2022/12/10 12:03:12;;;;;;;53.30;22.47;;;2.50;99.90;;;;;;5038532;28;20228;-78
2022/12/10 12:06:21;;;;;;;48.53;21.23;;;2.50;99.90;;;;;;5050478;28;20222;-78
2022/12/10 12:09:16;;;;;;;53.50;23.53;;;2.50;99.90;;;;;;5037490;28;20736;-79
2022/12/10 12:12:24;;;;;;;53.60;23.57;;;2.60;99.90;;;;;;5042970;28;20232;-76
2022/12/10 12:15:20;;;;;;;58.20;23.50;;;2.50;99.90;;;;;;5039374;28;20595;-77
2022/12/10 12:18:16;;;;;;;62.83;23.80;;;2.40;99.90;;;;;;5042075;28;20226;-77
2022/12/10 12:21:15;;;;;;;66.03;25.40;;;2.30;99.90;;;;;;5053084;28;20215;-77
2022/12/10 12:24:08;;;;;;;63.53;25.90;;;2.40;99.90;;;;;;5056254;28;20624;-76
2022/12/10 12:27:03;;;;;;;72.13;26.27;;;2.50;99.90;;;;;;5045048;28;20220;-77
2022/12/10 12:30:02;;;;;;;55.77;23.43;;;2.40;99.90;;;;;;5057443;28;20225;-77
2022/12/10 12:32:58;;;;;;;59.57;23.33;;;2.50;99.90;;;;;;5037890;28;20228;-77
2022/12/10 12:35:50;;;;;;;60.27;23.13;;;2.50;99.90;;;;;;5052198;28;20227;-76
2022/12/10 12:38:46;;;;;;;54.87;22.67;;;2.40;99.90;;;;;;5056353;28;20245;-78
2022/12/10 12:41:41;;;;;;;57.67;24.73;;;2.50;99.90;;;;;;5046945;28;20231;-75
2022/12/10 12:44:37;;;;;;;57.43;24.17;;;2.40;99.90;;;;;;5044595;28;20231;-77
2022/12/10 12:47:37;;;;;;;60.17;25.23;;;2.50;99.90;;;;;;5037600;28;20222;-77
2022/12/10 12:50:31;;;;;;;57.63;24.67;;;2.50;99.90;;;;;;5053269;28;20306;-77
2022/12/10 12:53:22;;;;;;;63.40;25.70;;;2.60;99.90;;;;;;5060724;28;20249;-78
2022/12/10 12:56:24;;;;;;;62.23;25.83;;;2.60;99.90;;;;;;5027787;28;20631;-77
2022/12/10 12:59:27;;;;;;;60.00;25.43;;;2.50;99.90;;;;;;5052880;28;20226;-77
2022/12/10 13:02:36;;;;;;;59.70;23.20;;;2.50;99.90;;;;;;5037256;28;20230;-77
2022/12/10 13:05:32;;;;;;;55.50;23.73;;;2.50;99.90;;;;;;5039244;28;20218;-81
2022/12/10 13:08:29;;;;;;;52.40;23.00;;;2.60;99.90;;;;;;5035471;28;20230;-77
2022/12/10 13:11:29;;;;;;;49.87;23.23;;;2.50;99.90;;;;;;5057943;28;20238;-78
2022/12/10 13:14:31;;;;;;;54.90;24.07;;;2.40;99.90;;;;;;5040784;28;20236;-77
2022/12/10 13:17:29;;;;;;;58.40;25.53;;;2.50;99.90;;;;;;5051316;28;20234;-78
2022/12/10 13:20:32;;;;;;;59.27;25.03;;;2.20;99.90;;;;;;5051696;28;20242;-77
2022/12/10 13:23:32;;;;;;;54.70;24.00;;;2.30;99.90;;;;;;5055834;28;20803;-77
2022/12/10 13:26:26;;;;;;;53.83;23.77;;;2.30;99.90;;;;;;5039133;28;20252;-78
2022/12/10 13:29:25;;;;;;;57.10;24.57;;;2.50;99.90;;;;;;5041862;28;20223;-77
2022/12/10 13:32:19;;;;;;;64.77;26.70;;;2.40;99.90;;;;;;5053815;28;20226;-78
2022/12/10 13:35:26;;;;;;;54.10;23.77;;;2.40;99.90;;;;;;5035401;28;20219;-78
2022/12/10 13:38:21;;;;;;;51.43;23.77;;;2.40;99.90;;;;;;5043352;28;20230;-78
2022/12/10 13:44:38;;;;;;;58.27;24.20;;;2.50;99.90;;;;;;5054258;28;20227;-77
2022/12/10 13:47:33;;;;;;;57.00;24.87;;;2.40;99.90;;;;;;5044586;28;20989;-78
2022/12/10 13:50:33;;;;;;;58.23;26.03;;;2.30;99.90;;;;;;5048827;28;20230;-78
2022/12/10 13:53:35;;;;;;;56.07;25.80;;;2.40;99.90;;;;;;5043662;28;20414;-77
2022/12/10 13:56:29;;;;;;;58.23;26.37;;;2.50;99.90;;;;;;5049516;28;20236;-78
2022/12/10 13:59:28;;;;;;;55.30;26.67;;;2.50;99.90;;;;;;5054306;28;20230;-77
2022/12/10 14:02:52;;;;;;;55.70;25.27;;;2.40;99.90;;;;;;5053034;28;20227;-78
2022/12/10 14:05:55;;;;;;;51.63;23.67;;;2.40;99.90;;;;;;5043428;28;20221;-75
2022/12/10 14:08:56;;;;;;;57.00;25.33;;;2.30;99.90;;;;;;5041390;28;20225;-78
2022/12/10 14:11:49;;;;;;;52.90;24.80;;;2.40;99.90;;;;;;5049035;28;20863;-77
2022/12/10 14:14:43;;;;;;;52.30;23.93;;;2.40;99.90;;;;;;5042686;28;20709;-78
2022/12/10 14:17:37;;;;;;;54.90;26.77;;;2.40;99.90;;;;;;5042510;28;20220;-77
2022/12/10 14:20:26;;;;;;;55.23;25.80;;;2.40;99.90;;;;;;5056875;28;20321;-78
2022/12/10 14:23:41;;;;;;;54.03;26.83;;;2.30;99.90;;;;;;5055282;28;20212;-78
2022/12/10 14:26:36;;;;;;;52.20;26.00;;;2.30;99.90;;;;;;5043104;28;20222;-78
2022/12/10 14:29:25;;;;;;;51.83;25.87;;;2.20;99.90;;;;;;5040844;28;20234;-77
2022/12/10 14:32:19;;;;;;;53.70;25.73;;;2.10;99.90;;;;;;5046753;28;20235;-77
2022/12/10 14:35:16;;;;;;;53.20;26.83;;;2.20;99.90;;;;;;5041650;28;20219;-78
2022/12/10 14:38:20;;;;;;;56.90;26.83;;;2.30;99.90;;;;;;5041878;28;20217;-78
2022/12/10 14:41:11;;;;;;;51.90;26.40;;;2.40;99.90;;;;;;5026865;28;21208;-77
2022/12/10 14:44:04;;;;;;;54.57;27.07;;;2.40;99.90;;;;;;5036896;28;20260;-76
2022/12/10 14:47:03;;;;;;;51.17;26.30;;;2.40;99.90;;;;;;5044407;28;20227;-79
2022/12/10 14:49:54;;;;;;;51.70;26.90;;;2.30;99.90;;;;;;5043392;28;20236;-78
2022/12/10 14:52:46;;;;;;;51.83;26.77;;;2.20;99.90;;;;;;5056968;28;20971;-84
2022/12/10 14:55:36;;;;;;;49.73;25.80;;;2.00;99.90;;;;;;5037636;28;20706;-75
2022/12/10 14:58:31;;;;;;;49.53;25.63;;;2.00;99.90;;;;;;5037490;28;20219;-76